EDT,Max TemperatureF,Mean TemperatureF,Min TemperatureF,Max Dew PointF,MeanDew PointF,Min DewpointF,Max Humidity, Mean Humidity, Min Humidity, Max Sea Level PressureIn, Mean Sea Level PressureIn, Min Sea Level PressureIn, Max VisibilityMiles, Mean VisibilityMiles, Min VisibilityMiles, Max Wind SpeedMPH, Mean Wind SpeedMPH, Max Gust SpeedMPH,PrecipitationIn, CloudCover, Events, WindDirDegrees
2012-10-1,64,56,48,53,49,47,93,76,60,29.94,29.76,29.70,10,10,10,15,5,26,0.00,5,,254
2012-10-2,68,60,52,58,55,51,93,85,57,30.08,30.03,29.94,10,9,2,7,1,,0.08,4,Rain,168
2012-10-3,64,62,59,63,60,57,100,94,88,30.18,30.11,30.05,10,3,0,7,1,,0.06,6,Fog-Rain,49
2012-10-4,62,60,59,61,58,57,100,93,88,30.20,30.13,30.05,10,4,1,6,1,,0.07,6,Rain,29
2012-10-5,77,66,55,61,57,52,100,91,42,30.04,30.01,29.92,10,4,0,6,1,,0.00,5,Fog,311
2012-10-6,77,66,52,62,54,40,96,75,48,29.93,29.82,29.69,10,10,6,9,3,,0.03,2,Rain,255
2012-10-7,56,48,41,47,41,37,93,73,49,30.08,30.04,29.95,10,9,5,6,3,,0.11,2,Rain,298
2012-10-8,55,46,38,45,41,38,97,79,53,30.34,30.24,30.09,10,9,1,8,3,,0.01,2,Rain,325
2012-10-9,55,49,43,47,45,42,93,80,64,30.33,30.26,30.16,10,10,9,9,5,,0.00,7,Rain,19
2012-10-10,57,52,48,57,51,44,100,92,74,30.16,29.89,29.72,10,4,0,8,3,,0.27,7,Fog-Rain,6
2012-10-11,57,51,43,42,35,30,73,57,35,30.13,30.02,29.82,10,10,10,16,8,,0.00,1,,278
2012-10-12,50,44,34,39,32,22,79,63,36,30.38,30.14,30.00,10,10,8,18,5,26,0.03,3,Rain,319
2012-10-13,52,39,26,31,24,20,86,58,29,30.48,30.41,30.33,10,8,2,14,4,26,0.00,0,,306
2012-10-14,63,52,41,54,46,35,100,88,67,30.30,30.10,29.93,10,8,2,7,3,,0.37,5,Rain,140
2012-10-15,73,64,54,61,58,51,94,81,59,29.91,29.71,29.62,10,8,1,9,4,,0.17,4,Rain,196
2012-10-16,59,48,37,58,39,32,96,65,43,29.91,29.71,29.59,10,10,8,28,9,29,0.01,3,Rain,311
2012-10-17,63,47,31,41,34,28,93,69,29,30.02,29.96,29.92,10,10,7,7,2,,0.00,0,,320
2012-10-18,65,50,36,47,41,34,93,75,37,30.14,30.09,30.03,10,10,7,9,3,,0.00,1,,140
2012-10-19,65,56,48,61,56,45,100,92,67,30.11,29.91,29.74,10,5,1,16,4,30,0.34,6,Rain-Thunderstorm,110
2012-10-20,73,64,56,64,61,41,100,91,35,29.75,29.69,29.62,10,5,1,10,2,,0.12,4,Rain,143
2012-10-21,63,52,41,42,39,36,89,59,37,29.89,29.85,29.77,10,10,10,15,5,22,0.00,3,,283
2012-10-22,66,56,45,42,39,37,80,57,35,30.01,29.93,29.89,10,10,2,17,8,26,0.00,2,,298
2012-10-23,63,51,39,45,40,37,89,69,43,30.14,30.08,30.03,10,10,10,10,3,,0.00,0,,324
2012-10-24,59,48,38,42,38,35,89,73,44,30.23,30.19,30.15,10,10,2,5,2,,0.00,3,,296
2012-10-25,63,51,39,46,39,33,89,65,31,30.33,30.28,30.25,10,10,7,8,2,,0.00,4,,13
2012-10-26,66,54,43,54,48,41,93,82,61,30.27,30.20,30.14,10,10,10,5,1,,0.00,3,,235
2012-10-27,63,54,45,53,47,45,100,91,65,30.13,30.09,30.03,10,3,0,7,3,,0.00,6,Fog,331
2012-10-28,54,51,48,50,46,40,94,82,61,30.04,29.97,29.84,10,7,1,10,6,,0.00,7,Rain,33
2012-10-29,63,56,50,61,54,48,94,91,88,29.82,29.51,29.25,8,2,0,33,13,47,1.74,8,Fog-Rain,64
2012-10-30,66,58,51,61,56,51,100,89,65,29.60,29.50,29.32,10,5,0,20,10,23,1.51,6,Fog-Rain-Thunderstorm,125
2012-10-31,55,51,47,54,49,39,100,88,62,29.57,29.52,29.47,10,5,0,8,1,,0.01,5,Fog-Rain,181